createdAt,value
2022-12-01T00:01:50.580Z,38.57
2022-12-01T00:04:20.476Z,40.85
2022-12-01T00:06:49.022Z,38.76
2022-12-01T00:09:36.132Z,37.05
2022-12-01T00:12:07.178Z,38.00
2022-12-01T00:14:35.598Z,39.90
2022-12-01T00:17:05.793Z,31.16
2022-12-01T00:19:35.495Z,37.24
2022-12-01T00:22:05.176Z,40.28
2022-12-01T00:24:34.830Z,40.85
2022-12-01T00:27:04.539Z,39.33
2022-12-01T00:29:34.264Z,41.80
2022-12-01T00:32:04.372Z,37.05
2022-12-01T00:34:34.971Z,41.23
2022-12-01T00:37:05.474Z,41.99
2022-12-01T00:39:34.596Z,37.05
2022-12-01T00:42:08.622Z,40.85
2022-12-01T00:44:41.714Z,37.43
2022-12-01T00:47:11.629Z,43.13
2022-12-01T00:49:41.837Z,43.13
2022-12-01T00:52:17.190Z,39.14
2022-12-01T00:54:47.203Z,34.77
2022-12-01T00:57:16.942Z,40.85
2022-12-01T00:59:47.313Z,45.98
2022-12-01T01:02:17.199Z,40.47
2022-12-01T01:04:47.138Z,32.87
2022-12-01T01:07:17.083Z,41.04
2022-12-01T01:09:47.061Z,38.38
2022-12-01T01:12:18.641Z,42.94
2022-12-01T01:14:47.480Z,44.46
2022-12-01T01:17:14.599Z,42.37
2022-12-01T01:19:43.182Z,40.66
2022-12-01T01:22:12.277Z,40.09
2022-12-01T01:24:40.134Z,41.80
2022-12-01T01:27:08.434Z,43.32
2022-12-01T01:29:38.318Z,40.47
2022-12-01T01:32:09.235Z,39.71
2022-12-01T01:34:38.929Z,38.76
2022-12-01T01:37:08.715Z,41.99
2022-12-01T01:39:38.516Z,42.75
2022-12-01T01:42:14.959Z,44.46
2022-12-01T01:44:57.762Z,39.14
2022-12-01T01:47:34.859Z,42.56
2022-12-01T01:50:13.281Z,40.66
2022-12-01T01:52:55.364Z,43.70
2022-12-01T01:55:26.168Z,41.61
2022-12-01T01:57:56.743Z,38.76
2022-12-01T02:00:45.186Z,40.47
2022-12-01T02:03:18.417Z,37.43
2022-12-01T02:05:46.456Z,39.71
2022-12-01T02:08:14.883Z,36.10
2022-12-01T02:11:21.005Z,36.10
2022-12-01T02:14:45.786Z,35.72
2022-12-01T02:17:27.298Z,38.76
2022-12-01T02:20:38.812Z,42.56
2022-12-01T02:24:01.274Z,36.29
2022-12-01T02:27:06.704Z,41.23
2022-12-01T02:29:45.566Z,38.38
2022-12-01T02:32:38.483Z,41.61
2022-12-01T02:35:48.634Z,37.24
2022-12-01T02:38:45.350Z,38.38
2022-12-01T02:41:27.437Z,38.38
2022-12-01T02:44:08.841Z,37.81
2022-12-01T02:47:18.520Z,38.19
2022-12-01T02:49:55.116Z,32.11
2022-12-01T02:52:27.015Z,37.24
2022-12-01T02:54:57.030Z,40.09
2022-12-01T02:57:30.674Z,41.23
2022-12-01T03:00:01.889Z,43.70
2022-12-01T03:03:25.144Z,44.08
2022-12-01T03:06:28.035Z,38.95
2022-12-01T03:09:06.513Z,38.95
2022-12-01T03:11:54.452Z,35.53
2022-12-01T03:14:39.802Z,37.81
2022-12-01T03:17:18.943Z,40.85
2022-12-01T03:19:55.750Z,41.99
2022-12-01T03:22:40.020Z,36.29
2022-12-01T03:25:13.201Z,34.96
2022-12-01T03:28:06.716Z,35.15
2022-12-01T03:30:38.976Z,39.52
2022-12-01T03:33:19.133Z,35.34
2022-12-01T03:36:03.397Z,39.52
2022-12-01T03:38:37.259Z,39.33
2022-12-01T03:41:17.885Z,41.61
2022-12-01T03:43:56.896Z,45.03
2022-12-01T03:46:47.397Z,43.51
2022-12-01T03:49:19.629Z,37.43
2022-12-01T03:52:17.306Z,39.90
2022-12-01T03:55:19.630Z,37.24
2022-12-01T03:58:09.069Z,32.49
2022-12-01T04:00:40.082Z,37.43
2022-12-01T04:03:19.065Z,39.90
2022-12-01T04:05:48.889Z,37.24
2022-12-01T04:08:17.819Z,39.71
2022-12-01T04:10:45.510Z,40.47
2022-12-01T04:13:22.693Z,41.42
2022-12-01T04:15:54.395Z,41.99
2022-12-01T04:18:22.874Z,42.18
2022-12-01T04:20:51.529Z,42.18
2022-12-01T04:23:38.056Z,39.90
2022-12-01T04:26:12.655Z,40.66
2022-12-01T04:28:45.309Z,42.37
2022-12-01T04:31:15.028Z,43.51
2022-12-01T04:33:44.829Z,38.57
2022-12-01T04:36:14.547Z,41.61
2022-12-01T04:38:44.256Z,42.94
2022-12-01T04:41:15.278Z,46.93
2022-12-01T04:43:45.077Z,38.00
2022-12-01T04:46:15.387Z,42.18
2022-12-01T04:48:45.273Z,38.38
2022-12-01T04:51:15.258Z,41.23
2022-12-01T04:53:44.975Z,37.81
2022-12-01T04:56:13.536Z,44.84
2022-12-01T04:58:42.094Z,44.08
2022-12-01T05:01:16.412Z,42.18
2022-12-01T05:03:49.537Z,41.61
2022-12-01T05:06:23.961Z,39.52
2022-12-01T05:09:00.260Z,48.26
2022-12-01T05:11:32.580Z,38.57
2022-12-01T05:14:02.369Z,39.52
2022-12-01T05:16:33.386Z,36.86
2022-12-01T05:19:24.317Z,43.32
2022-12-01T05:21:54.110Z,42.18
2022-12-01T05:24:22.610Z,39.52
2022-12-01T05:26:50.889Z,41.04
2022-12-01T05:29:19.457Z,41.99
2022-12-01T05:31:47.860Z,43.13
2022-12-01T05:34:16.386Z,42.18
2022-12-01T05:36:44.605Z,43.13
2022-12-01T05:39:12.984Z,37.05
2022-12-01T05:41:41.368Z,41.04
2022-12-01T05:44:09.925Z,43.51
2022-12-01T05:46:38.399Z,46.17
2022-12-01T05:49:06.895Z,41.99
2022-12-01T05:51:35.481Z,36.48
2022-12-01T05:54:04.034Z,37.05
2022-12-01T05:56:32.384Z,47.69
2022-12-01T05:59:00.979Z,44.84
2022-12-01T06:01:29.435Z,47.88
2022-12-01T06:03:57.797Z,41.99
2022-12-01T06:06:26.216Z,40.47
2022-12-01T06:08:54.622Z,38.38
2022-12-01T06:11:23.337Z,36.67
2022-12-01T06:13:51.508Z,44.65
2022-12-01T06:16:19.977Z,41.04
2022-12-01T06:18:48.396Z,38.95
2022-12-01T06:21:17.464Z,34.39
2022-12-01T06:23:45.287Z,43.13
2022-12-01T06:26:13.680Z,42.37
2022-12-01T06:28:42.194Z,39.90
2022-12-01T06:31:10.527Z,41.61
2022-12-01T06:33:39.119Z,41.99
2022-12-01T06:36:08.392Z,41.99
2022-12-01T06:38:37.301Z,43.89
2022-12-01T06:41:05.640Z,46.17
2022-12-01T06:43:36.327Z,42.94
2022-12-01T06:46:05.724Z,46.36
2022-12-01T06:48:32.677Z,46.36
2022-12-01T06:51:02.340Z,41.42
2022-12-01T06:53:30.013Z,46.17
2022-12-01T06:56:03.223Z,44.08
2022-12-01T06:58:34.494Z,39.71
2022-12-01T07:01:12.228Z,46.36
2022-12-01T07:03:42.861Z,40.85
2022-12-01T07:06:12.568Z,42.56
2022-12-01T07:08:42.628Z,49.97
2022-12-01T07:11:14.382Z,45.22
2022-12-01T07:13:47.012Z,42.56
2022-12-01T07:16:17.114Z,43.51
2022-12-01T07:18:46.810Z,45.03
2022-12-01T07:21:15.866Z,42.56
2022-12-01T07:23:44.004Z,49.21
2022-12-01T07:26:17.237Z,47.12
2022-12-01T07:28:46.923Z,41.80
2022-12-01T07:31:19.473Z,45.41
2022-12-01T07:33:49.246Z,44.46
2022-12-01T07:36:18.980Z,47.31
2022-12-01T07:38:48.673Z,47.69
2022-12-01T07:41:21.690Z,43.70
2022-12-01T07:43:51.540Z,45.03
2022-12-01T07:46:25.498Z,47.50
2022-12-01T07:48:56.090Z,44.27
2022-12-01T07:51:25.902Z,44.84
2022-12-01T07:53:55.608Z,46.55
2022-12-01T07:56:25.346Z,44.27
2022-12-01T07:58:55.241Z,42.94
2022-12-01T08:01:26.109Z,43.13
2022-12-01T08:03:58.650Z,46.36
2022-12-01T08:06:27.623Z,41.04
2022-12-01T08:08:57.569Z,44.46
2022-12-01T08:11:31.848Z,48.45
2022-12-01T08:14:01.766Z,48.64
2022-12-01T08:16:31.655Z,51.30
2022-12-01T08:19:00.029Z,49.78
2022-12-01T08:21:28.669Z,43.13
2022-12-01T08:23:58.011Z,48.64
2022-12-01T08:26:27.495Z,48.07
2022-12-01T08:28:57.915Z,51.30
2022-12-01T08:31:32.792Z,46.93
2022-12-01T08:34:06.738Z,55.67
2022-12-01T08:36:37.187Z,53.39
2022-12-01T08:39:08.680Z,50.54
2022-12-01T08:41:38.331Z,55.48
2022-12-01T08:44:10.761Z,56.62
2022-12-01T08:46:40.680Z,56.05
2022-12-01T08:49:10.592Z,53.39
2022-12-01T08:51:40.319Z,57.38
2022-12-01T08:54:12.137Z,55.48
2022-12-01T08:56:45.169Z,60.23
2022-12-01T08:59:15.013Z,57.19
2022-12-01T09:01:53.749Z,60.61
2022-12-01T09:04:26.600Z,58.90
2022-12-01T09:06:57.688Z,52.63
2022-12-01T09:09:29.089Z,59.66
2022-12-01T09:11:56.726Z,54.72
2022-12-01T09:14:24.290Z,55.67
2022-12-01T09:16:52.705Z,57.19
2022-12-01T09:19:24.498Z,57.00
2022-12-01T09:21:54.924Z,56.81
2022-12-01T09:24:24.745Z,57.19
2022-12-01T09:26:57.376Z,60.04
2022-12-01T09:29:27.248Z,65.17
2022-12-01T09:31:59.763Z,56.81
2022-12-01T09:34:29.485Z,60.80
2022-12-01T09:36:59.237Z,60.61
2022-12-01T09:39:29.694Z,58.14
2022-12-01T09:42:15.016Z,54.53
2022-12-01T09:44:56.129Z,60.42
2022-12-01T09:47:35.384Z,52.82
2022-12-01T09:50:23.874Z,61.75
2022-12-01T09:53:08.650Z,57.76
2022-12-01T09:55:39.685Z,57.76
2022-12-01T09:58:29.638Z,60.04
2022-12-01T10:01:00.273Z,55.48
2022-12-01T10:03:50.205Z,62.13
2022-12-01T10:07:03.328Z,59.09
2022-12-01T10:10:07.094Z,61.94
2022-12-01T10:12:36.946Z,54.34
2022-12-01T10:15:42.667Z,60.04
2022-12-01T10:18:27.490Z,54.72
2022-12-01T10:21:19.619Z,57.19
2022-12-01T10:24:18.621Z,53.01
2022-12-01T10:27:24.059Z,59.85
2022-12-01T10:30:24.431Z,66.69
2022-12-01T10:33:00.645Z,53.39
2022-12-01T10:35:36.968Z,62.32
2022-12-01T10:38:21.056Z,58.71
2022-12-01T10:40:51.642Z,62.32
2022-12-01T10:43:40.965Z,57.76
2022-12-01T10:46:29.645Z,54.34
2022-12-01T10:49:09.685Z,54.53
2022-12-01T10:51:54.909Z,54.15
2022-12-01T10:54:40.099Z,58.71
2022-12-01T10:57:17.641Z,59.85
2022-12-01T11:00:08.795Z,52.63
2022-12-01T11:02:38.894Z,54.15
2022-12-01T11:05:25.506Z,57.95
2022-12-01T11:07:55.986Z,55.86
2022-12-01T11:10:33.702Z,57.19
2022-12-01T11:13:28.346Z,59.66
2022-12-01T11:16:02.382Z,53.20
2022-12-01T11:18:38.646Z,54.72
2022-12-01T11:21:27.374Z,57.38
2022-12-01T11:23:57.402Z,47.69
2022-12-01T11:26:34.402Z,57.19
2022-12-01T11:29:22.506Z,55.48
2022-12-01T11:31:53.055Z,53.01
2022-12-01T11:34:27.240Z,47.50
2022-12-01T11:37:14.924Z,50.16
2022-12-01T11:39:48.431Z,51.30
2022-12-01T11:42:29.681Z,51.87
2022-12-01T11:45:22.328Z,52.25
2022-12-01T11:48:12.203Z,53.58
2022-12-01T11:50:44.033Z,52.06
2022-12-01T11:53:32.609Z,49.21
2022-12-01T11:56:28.764Z,48.83
2022-12-01T11:59:03.153Z,50.35
2022-12-01T12:01:57.029Z,46.36
2022-12-01T12:05:20.954Z,47.31
2022-12-01T12:08:44.874Z,47.12
2022-12-01T12:11:51.871Z,46.55
2022-12-01T12:14:48.474Z,46.55
2022-12-01T12:17:29.219Z,43.70
2022-12-01T12:20:20.544Z,45.22
2022-12-01T12:23:27.157Z,44.27
2022-12-01T12:26:22.972Z,44.46
2022-12-01T12:29:00.661Z,45.03
2022-12-01T12:31:52.080Z,50.16
2022-12-01T12:34:42.612Z,47.12
2022-12-01T12:37:44.275Z,46.55
2022-12-01T12:40:27.574Z,45.98
2022-12-01T12:43:06.178Z,42.37
2022-12-01T12:46:03.617Z,37.05
2022-12-01T12:49:18.549Z,44.84
2022-12-01T12:52:07.853Z,45.60
2022-12-01T12:55:15.472Z,36.86
2022-12-01T12:58:00.870Z,46.74
2022-12-01T13:00:30.996Z,40.85
2022-12-01T13:03:17.821Z,41.23
2022-12-01T13:06:20.692Z,36.67
2022-12-01T13:09:01.115Z,42.56
2022-12-01T13:11:47.029Z,43.89
2022-12-01T13:14:39.248Z,41.42
2022-12-01T13:17:41.747Z,41.04
2022-12-01T13:20:18.248Z,45.98
2022-12-01T13:22:49.469Z,42.56
2022-12-01T13:25:34.484Z,43.32
2022-12-01T13:28:17.290Z,41.61
2022-12-01T13:31:08.650Z,42.37
2022-12-01T13:33:55.905Z,45.60
2022-12-01T13:39:37.827Z,44.65
2022-12-01T13:42:40.273Z,46.17
2022-12-01T13:45:19.591Z,47.50
2022-12-01T13:47:55.365Z,44.46
2022-12-01T13:50:59.352Z,43.89
2022-12-01T13:53:35.673Z,44.65
2022-12-01T13:56:17.353Z,46.55
2022-12-01T13:58:50.736Z,45.98
2022-12-01T14:01:40.465Z,44.65
2022-12-01T14:04:16.322Z,42.18
2022-12-01T14:06:49.709Z,38.95
2022-12-01T14:09:31.082Z,42.75
2022-12-01T14:12:05.305Z,43.89
2022-12-01T14:14:44.336Z,39.90
2022-12-01T14:17:37.173Z,43.13
2022-12-01T14:20:23.036Z,38.00
2022-12-01T14:23:33.321Z,43.89
2022-12-01T14:26:21.059Z,42.56
2022-12-01T14:28:55.808Z,45.60
2022-12-01T14:32:02.607Z,44.46
2022-12-01T14:34:34.956Z,43.70
2022-12-01T14:37:23.120Z,44.65
2022-12-01T14:40:12.316Z,40.85
2022-12-01T14:43:06.950Z,42.56
2022-12-01T14:46:22.972Z,41.80
2022-12-01T14:48:54.999Z,42.18
2022-12-01T14:51:32.295Z,41.23
2022-12-01T14:54:09.951Z,41.61
2022-12-01T14:56:41.830Z,40.28
2022-12-01T14:59:26.255Z,38.57
2022-12-01T15:02:09.393Z,41.80
2022-12-01T15:05:17.617Z,40.09
2022-12-01T15:07:52.183Z,40.09
2022-12-01T15:10:34.783Z,40.09
2022-12-01T15:13:28.389Z,41.99
2022-12-01T15:16:02.777Z,36.48
2022-12-01T15:18:36.781Z,38.38
2022-12-01T15:21:16.308Z,41.80
2022-12-01T15:24:06.460Z,36.67
2022-12-01T15:26:47.075Z,36.67
2022-12-01T15:29:21.370Z,38.57
2022-12-01T15:31:55.347Z,38.95
2022-12-01T15:34:35.156Z,34.77
2022-12-01T15:37:13.231Z,36.48
2022-12-01T15:39:48.689Z,38.19
2022-12-01T15:42:32.077Z,40.09
2022-12-01T15:45:15.212Z,38.38
2022-12-01T15:47:50.573Z,41.23
2022-12-01T15:50:46.232Z,36.29
2022-12-01T15:53:34.399Z,36.10
2022-12-01T15:56:10.662Z,37.43
2022-12-01T15:58:47.071Z,37.62
2022-12-01T16:01:21.425Z,40.47
2022-12-01T16:04:14.740Z,41.99
2022-12-01T16:07:03.542Z,38.95
2022-12-01T16:09:57.037Z,40.85
2022-12-01T16:12:28.868Z,38.76
2022-12-01T16:14:59.878Z,41.61
2022-12-01T16:17:42.868Z,39.52
2022-12-01T16:20:34.232Z,38.19
2022-12-01T16:23:15.146Z,41.04
2022-12-01T16:25:47.852Z,38.95
2022-12-01T16:28:34.521Z,42.75
2022-12-01T16:31:06.912Z,39.71
2022-12-01T16:33:38.942Z,43.70
2022-12-01T16:36:08.831Z,38.38
2022-12-01T16:38:37.125Z,43.32
2022-12-01T16:41:17.863Z,45.03
2022-12-01T16:44:05.825Z,43.51
2022-12-01T16:46:37.683Z,44.84
2022-12-01T16:49:07.998Z,42.94
2022-12-01T16:51:54.666Z,45.41
2022-12-01T16:54:25.386Z,41.99
2022-12-01T16:56:53.643Z,43.89
2022-12-01T16:59:21.712Z,41.80
2022-12-01T17:01:50.332Z,43.70
2022-12-01T17:04:18.574Z,44.08
2022-12-01T17:06:45.507Z,45.98
2022-12-01T17:09:12.954Z,45.41
2022-12-01T17:11:41.396Z,42.94
2022-12-01T17:14:10.112Z,45.60
2022-12-01T17:16:38.525Z,42.37
2022-12-01T17:19:06.630Z,42.94
2022-12-01T17:21:35.015Z,44.65
2022-12-01T17:24:04.133Z,43.51
2022-12-01T17:26:31.729Z,39.52
2022-12-01T17:29:00.237Z,39.33
2022-12-01T17:31:28.790Z,42.18
2022-12-01T17:33:57.220Z,38.00
2022-12-01T17:36:25.553Z,41.04
2022-12-01T17:38:54.211Z,41.61
2022-12-01T17:41:24.667Z,45.41
2022-12-01T17:43:53.720Z,46.93
2022-12-01T17:46:22.280Z,45.79
2022-12-01T17:48:50.503Z,42.75
2022-12-01T17:51:19.063Z,43.70
2022-12-01T17:53:47.953Z,44.84
2022-12-01T17:56:17.466Z,45.79
2022-12-01T17:58:49.296Z,45.03
2022-12-01T18:01:25.332Z,40.09
2022-12-01T18:03:58.937Z,46.55
2022-12-01T18:06:29.003Z,43.89
2022-12-01T18:09:01.464Z,42.37
2022-12-01T18:11:30.297Z,43.89
2022-12-01T18:14:00.126Z,39.33
2022-12-01T18:16:32.245Z,41.61
2022-12-01T18:19:02.167Z,38.57
2022-12-01T18:21:31.957Z,41.42
2022-12-01T18:24:03.821Z,42.18
2022-12-01T18:26:33.944Z,36.10
2022-12-01T18:29:16.061Z,43.32
2022-12-01T18:31:47.228Z,37.24
2022-12-01T18:34:17.044Z,41.61
2022-12-01T18:36:47.082Z,39.52
2022-12-01T18:39:17.255Z,40.09
2022-12-01T18:41:47.202Z,41.99
2022-12-01T18:44:17.109Z,38.00
2022-12-01T18:46:46.986Z,40.47
2022-12-01T18:49:17.081Z,41.04
2022-12-01T18:51:46.799Z,41.23
2022-12-01T18:54:16.839Z,41.99
2022-12-01T18:56:46.678Z,39.14
2022-12-01T18:59:18.337Z,40.09
2022-12-01T19:01:48.524Z,42.94
2022-12-01T19:04:19.265Z,41.61
2022-12-01T19:06:49.082Z,40.85
2022-12-01T19:09:19.076Z,41.42
2022-12-01T19:11:48.879Z,40.85
2022-12-01T19:14:19.684Z,44.46
2022-12-01T19:16:47.932Z,40.47
2022-12-01T19:19:15.205Z,40.66
2022-12-01T19:21:45.446Z,41.80
2022-12-01T19:24:15.472Z,39.52
2022-12-01T19:26:45.382Z,43.70
2022-12-01T19:29:15.266Z,41.61
2022-12-01T19:31:45.337Z,41.80
2022-12-01T19:34:15.142Z,39.90
2022-12-01T19:36:44.890Z,41.99
2022-12-01T19:39:13.847Z,42.94
2022-12-01T19:41:41.862Z,39.71
2022-12-01T19:44:11.932Z,41.80
2022-12-01T19:46:42.229Z,43.32
2022-12-01T19:49:10.949Z,42.18
2022-12-01T19:51:40.452Z,43.51
2022-12-01T19:54:18.586Z,37.81
2022-12-01T19:56:49.089Z,37.81
2022-12-01T19:59:18.802Z,41.04
2022-12-01T20:01:48.772Z,42.75
2022-12-01T20:04:18.590Z,41.99
2022-12-01T20:06:48.648Z,36.29
2022-12-01T20:09:18.447Z,34.58
2022-12-01T20:11:48.369Z,41.61
2022-12-01T20:14:18.130Z,36.86
2022-12-01T20:16:48.321Z,38.95
2022-12-01T20:19:18.212Z,43.13
2022-12-01T20:21:47.979Z,46.36
2022-12-01T20:24:22.246Z,45.79
2022-12-01T20:26:56.681Z,42.56
2022-12-01T20:29:29.561Z,45.60
2022-12-01T20:32:01.025Z,39.90
2022-12-01T20:34:35.315Z,42.75
2022-12-01T20:37:05.167Z,37.62
2022-12-01T20:39:37.730Z,40.09
2022-12-01T20:42:11.368Z,42.56
2022-12-01T20:44:41.322Z,40.66
2022-12-01T20:47:11.116Z,38.00
2022-12-01T20:49:40.902Z,37.81
2022-12-01T20:52:09.336Z,41.04
2022-12-01T20:54:39.076Z,40.66
2022-12-01T20:57:06.087Z,39.71
2022-12-01T20:59:35.783Z,39.52
2022-12-01T21:02:03.473Z,41.80
2022-12-01T21:04:31.560Z,42.75
2022-12-01T21:07:00.268Z,41.04
2022-12-01T21:09:28.381Z,41.99
2022-12-01T21:12:18.629Z,37.24
2022-12-01T21:15:01.818Z,38.19
2022-12-01T21:17:41.963Z,42.18
2022-12-01T21:20:26.328Z,37.62
2022-12-01T21:23:08.728Z,40.66
2022-12-01T21:25:40.224Z,42.56
2022-12-01T21:28:19.183Z,41.61
2022-12-01T21:30:53.386Z,42.37
2022-12-01T21:33:35.605Z,39.14
2022-12-01T21:36:18.954Z,42.75
2022-12-01T21:38:56.700Z,39.52
2022-12-01T21:41:31.034Z,40.47
2022-12-01T21:44:12.553Z,38.00
2022-12-01T21:46:43.756Z,40.47
2022-12-01T21:49:22.258Z,40.28
2022-12-01T21:51:53.730Z,36.86
2022-12-01T21:54:23.472Z,36.48
2022-12-01T21:56:58.651Z,38.38
2022-12-01T21:59:28.415Z,40.66
2022-12-01T22:01:58.300Z,38.38
2022-12-01T22:04:32.728Z,41.61
2022-12-01T22:07:03.362Z,37.43
2022-12-01T22:09:35.940Z,40.47
2022-12-01T22:12:28.828Z,40.85
2022-12-01T22:15:01.491Z,37.81
2022-12-01T22:17:30.084Z,36.48
2022-12-01T22:20:02.440Z,37.43
2022-12-01T22:22:32.704Z,37.05
2022-12-01T22:25:28.385Z,38.57
2022-12-01T22:27:59.945Z,34.77
2022-12-01T22:30:29.628Z,39.90
2022-12-01T22:33:05.325Z,35.15
2022-12-01T22:35:52.746Z,33.82
2022-12-01T22:38:39.640Z,38.19
2022-12-01T22:41:14.402Z,37.24
2022-12-01T22:43:46.237Z,36.48
2022-12-01T22:46:35.636Z,36.10
2022-12-01T22:49:22.595Z,39.33
2022-12-01T22:52:03.005Z,37.43
2022-12-01T22:54:39.650Z,35.91
2022-12-01T22:57:40.802Z,34.96
2022-12-01T23:00:21.967Z,35.72
2022-12-01T23:02:52.235Z,36.10
2022-12-01T23:05:29.290Z,36.67
2022-12-01T23:07:59.092Z,34.96
2022-12-01T23:10:33.774Z,41.23
2022-12-01T23:13:24.169Z,34.96
2022-12-01T23:15:54.105Z,35.34
2022-12-01T23:18:31.912Z,38.19
2022-12-01T23:21:02.498Z,33.82
2022-12-01T23:23:36.487Z,36.29
2022-12-01T23:26:08.597Z,34.39
2022-12-01T23:28:40.641Z,33.06
2022-12-01T23:31:10.850Z,34.77
2022-12-01T23:33:40.737Z,36.10
2022-12-01T23:36:24.573Z,34.20
2022-12-01T23:39:02.272Z,33.63
2022-12-01T23:41:42.414Z,35.72
2022-12-01T23:44:41.517Z,37.62
2022-12-01T23:47:26.702Z,35.53
2022-12-01T23:50:06.670Z,36.29
2022-12-01T23:52:36.721Z,33.63
2022-12-01T23:55:22.817Z,39.52
2022-12-01T23:57:53.565Z,37.05
